Hlavní strana
METAR-TAF:

METAR-TAF

Letiště :

Wallops Flight Facility

Wallops Island, Virginie, Spojené státy americké

zeměpisná šířka: 37-56-26N, zeměpisná délka: 075-27-47W, výška: 12 m

Aktuální stav počasí

Zpráva byla vytvořena před 33 minutami, v 17:54 UTC
Západoseverozápadní vítr 16 kt s nárazy do 31 kt
Teplota 7°C
Vlhkost vzduchu 39%
Tlak 1009 hPa
Viditelnost: 16.1 km
Jasno

METAR: KWAL 271754Z 30016G31KT 10SM CLR 07/M06 A2980 RMK AO2 PK WND 28036/1722 SLP088 T00721061 10083 20056 51019

Čas: 13:27 (18:27 UTC)


TAF: chybějící

Stav a předpovědi počasí z více než 4 000 letišť (zprávy METAR a TAF).

Červené a žluté tečky na mapě představují dostupné meteorologické stanice.

Když kurzor umístíte na tečku, zobrazí se název stanice.

Pak kliknutím zobrazíte stav a předpověď počasí.

Chcete-li změnit mapu, kliknutím na zelené tlačítko se znaménkem +mapu přiblížíte, kliknutím na zelené tlačítko se znaménkem – mapu oddálíte a kliknutím na zelené šipky přejdete na sousední mapy.


METAR-TAF: